Maurice, LA (70555)

6:14 AM CDT on August 30, 2015 (GMT -0500)
Judice | | Change Station
CLOSE
Current Station
Personal Weather Station
Location: Duson, LA
Elevation: 30 ft
Nearby Weather Stations

Elev 30 ft 30.14 °N, 92.14 °W | Updated 11 minutes ago

Partly Cloudy
Partly Cloudy
67.1 °F
Feels Like 67.1 °F
N
0.0
Wind Variable Wind from North

Today
High -- | Low -- °F
--% Chance of Precip.
Yesterday
High -- | Low -- °F
Precip. -- in
6:44 AM 7:33 PM
Full, 99% visible
Pressure 30.01 in
Visibility 1.5 miles
Clouds
Dew Point 67 °F
Humidity 99%
Rainfall 0.00 in
Snow Depth Not available.
UV Not available.
Pollen 7.40 out of 12
Air Quality Not available.
Flu Activity Not available.
METAR KIYA 301055Z AUTO 00000KT 1 1/2SM BR VV007 19/19 A3001 RMK AO2 T01900190
Pressure 30.01 in
Visibility 1.5 miles
Clouds
Dew Point 67 °F
Humidity 99%
Rainfall 0.00 in
Snow Depth Not available.
UV Not available.
Pollen 7.40 out of 12
Air Quality Not available.
Flu Activity Not available.
METAR KIYA 301055Z AUTO 00000KT 1 1/2SM BR VV007 19/19 A3001 RMK AO2 T01900190

10-Day Weather Forecast

×

Almanac

Astronomy

Aug. 30, 2015 Rise Set
Actual Time
Civil Twilight
Nautical Twilight
Astronomical Twilight
Moon
Length of Visible Light
Length of Day
Tomorrow will be .
, % of the Moon is Illuminated

Today's Extremes

State Highs State Lows

Community

WunderPhotos

Upload Photos

1,850,925 photos uploaded!

WunderBlogs® & News

Nearby

Air Quality

  Air Quality AQ Index Pollutant
Not available.

Snow Depth

Station Depth Elevation

Earthquake Activity

City Distance Mag. Time & Date
Minimum magnitude displayed is 2.5.

Coastal Water Temperatures

Place Temperature

Stations

Nearby Weather Stations

Station Location Temp. Windchill Dew Point Humidity Wind Precip. Elev Updated Type